sensor_id;sensor_type;location;lat;lon;timestamp;P1;durP1;ratioP1;P2;durP2;ratioP2
3943;SDS011;1986;52.546;13.428;2022-10-16T00:01:33;8.77;;;8.57;;
3943;SDS011;1986;52.546;13.428;2022-10-16T00:04:01;8.70;;;8.50;;
3943;SDS011;1986;52.546;13.428;2022-10-16T00:06:29;8.87;;;8.67;;
3943;SDS011;1986;52.546;13.428;2022-10-16T00:08:58;9.50;;;9.30;;
3943;SDS011;1986;52.546;13.428;2022-10-16T00:11:29;9.03;;;8.83;;
3943;SDS011;1986;52.546;13.428;2022-10-16T00:14:03;9.60;;;9.40;;
3943;SDS011;1986;52.546;13.428;2022-10-16T00:16:31;9.20;;;9.00;;
3943;SDS011;1986;52.546;13.428;2022-10-16T00:19:01;9.37;;;9.17;;
3943;SDS011;1986;52.546;13.428;2022-10-16T00:21:30;10.40;;;10.10;;
3943;SDS011;1986;52.546;13.428;2022-10-16T00:23:58;9.60;;;9.40;;
3943;SDS011;1986;52.546;13.428;2022-10-16T00:26:27;9.67;;;9.47;;
3943;SDS011;1986;52.546;13.428;2022-10-16T00:28:56;9.73;;;9.53;;
3943;SDS011;1986;52.546;13.428;2022-10-16T00:31:23;9.97;;;9.77;;
3943;SDS011;1986;52.546;13.428;2022-10-16T00:33:52;10.20;;;10.00;;
3943;SDS011;1986;52.546;13.428;2022-10-16T00:36:20;10.97;;;10.67;;
3943;SDS011;1986;52.546;13.428;2022-10-16T00:38:49;10.93;;;10.63;;
3943;SDS011;1986;52.546;13.428;2022-10-16T00:41:19;10.40;;;10.20;;
3943;SDS011;1986;52.546;13.428;2022-10-16T00:43:48;10.50;;;10.20;;
3943;SDS011;1986;52.546;13.428;2022-10-16T00:46:17;10.10;;;9.90;;
3943;SDS011;1986;52.546;13.428;2022-10-16T00:48:49;10.10;;;9.90;;
3943;SDS011;1986;52.546;13.428;2022-10-16T00:51:23;10.10;;;9.90;;
3943;SDS011;1986;52.546;13.428;2022-10-16T00:53:55;10.20;;;10.00;;
3943;SDS011;1986;52.546;13.428;2022-10-16T00:56:22;10.90;;;10.60;;
3943;SDS011;1986;52.546;13.428;2022-10-16T00:58:49;10.83;;;10.53;;
3943;SDS011;1986;52.546;13.428;2022-10-16T01:01:16;10.27;;;10.07;;
3943;SDS011;1986;52.546;13.428;2022-10-16T01:03:43;10.10;;;9.90;;
3943;SDS011;1986;52.546;13.428;2022-10-16T01:06:19;10.50;;;10.20;;
3943;SDS011;1986;52.546;13.428;2022-10-16T01:08:53;10.53;;;10.23;;
3943;SDS011;1986;52.546;13.428;2022-10-16T01:11:38;10.20;;;10.00;;
3943;SDS011;1986;52.546;13.428;2022-10-16T01:14:11;10.20;;;10.00;;
3943;SDS011;1986;52.546;13.428;2022-10-16T01:16:48;11.27;;;10.67;;
3943;SDS011;1986;52.546;13.428;2022-10-16T01:19:21;10.60;;;10.30;;
3943;SDS011;1986;52.546;13.428;2022-10-16T01:21:59;10.60;;;10.30;;
3943;SDS011;1986;52.546;13.428;2022-10-16T01:24:31;10.30;;;10.10;;
3943;SDS011;1986;52.546;13.428;2022-10-16T01:27:14;10.57;;;10.27;;
3943;SDS011;1986;52.546;13.428;2022-10-16T01:29:46;10.67;;;10.37;;
3943;SDS011;1986;52.546;13.428;2022-10-16T01:32:20;10.20;;;10.00;;
3943;SDS011;1986;52.546;13.428;2022-10-16T01:34:52;10.03;;;9.80;;
3943;SDS011;1986;52.546;13.428;2022-10-16T01:37:29;9.83;;;9.53;;
3943;SDS011;1986;52.546;13.428;2022-10-16T01:40:00;9.70;;;9.50;;
3943;SDS011;1986;52.546;13.428;2022-10-16T01:42:33;9.07;;;8.87;;
3943;SDS011;1986;52.546;13.428;2022-10-16T01:45:02;9.30;;;9.10;;
3943;SDS011;1986;52.546;13.428;2022-10-16T01:47:32;9.20;;;9.00;;
3943;SDS011;1986;52.546;13.428;2022-10-16T01:50:02;10.30;;;10.00;;
3943;SDS011;1986;52.546;13.428;2022-10-16T01:52:34;9.30;;;9.10;;
3943;SDS011;1986;52.546;13.428;2022-10-16T01:55:05;9.50;;;9.30;;
3943;SDS011;1986;52.546;13.428;2022-10-16T01:57:36;9.30;;;9.10;;
3943;SDS011;1986;52.546;13.428;2022-10-16T02:00:07;10.27;;;9.97;;
3943;SDS011;1986;52.546;13.428;2022-10-16T02:02:37;9.70;;;9.50;;
3943;SDS011;1986;52.546;13.428;2022-10-16T02:05:08;9.70;;;9.50;;
3943;SDS011;1986;52.546;13.428;2022-10-16T02:07:42;10.00;;;9.70;;
3943;SDS011;1986;52.546;13.428;2022-10-16T02:10:08;9.87;;;9.67;;
3943;SDS011;1986;52.546;13.428;2022-10-16T02:12:38;9.60;;;9.40;;
3943;SDS011;1986;52.546;13.428;2022-10-16T02:15:08;9.50;;;9.30;;
3943;SDS011;1986;52.546;13.428;2022-10-16T02:17:35;9.93;;;9.73;;
3943;SDS011;1986;52.546;13.428;2022-10-16T02:20:02;9.60;;;9.40;;
3943;SDS011;1986;52.546;13.428;2022-10-16T02:22:32;9.90;;;9.70;;
3943;SDS011;1986;52.546;13.428;2022-10-16T02:25:03;11.07;;;10.57;;
3943;SDS011;1986;52.546;13.428;2022-10-16T02:27:34;10.13;;;9.83;;
3943;SDS011;1986;52.546;13.428;2022-10-16T02:30:07;10.70;;;10.40;;
3943;SDS011;1986;52.546;13.428;2022-10-16T02:32:39;9.80;;;9.60;;
3943;SDS011;1986;52.546;13.428;2022-10-16T02:35:10;9.60;;;9.40;;
3943;SDS011;1986;52.546;13.428;2022-10-16T02:37:38;9.70;;;9.50;;
3943;SDS011;1986;52.546;13.428;2022-10-16T02:40:07;9.90;;;9.60;;
3943;SDS011;1986;52.546;13.428;2022-10-16T02:42:39;10.27;;;9.97;;
3943;SDS011;1986;52.546;13.428;2022-10-16T02:45:07;10.67;;;10.33;;
3943;SDS011;1986;52.546;13.428;2022-10-16T02:47:35;9.20;;;9.00;;
3943;SDS011;1986;52.546;13.428;2022-10-16T02:50:02;9.53;;;9.33;;
3943;SDS011;1986;52.546;13.428;2022-10-16T02:52:33;9.90;;;9.60;;
3943;SDS011;1986;52.546;13.428;2022-10-16T02:55:02;9.50;;;9.30;;
3943;SDS011;1986;52.546;13.428;2022-10-16T02:57:29;9.63;;;9.43;;
3943;SDS011;1986;52.546;13.428;2022-10-16T02:59:58;9.60;;;9.40;;
3943;SDS011;1986;52.546;13.428;2022-10-16T03:02:25;9.00;;;8.80;;
3943;SDS011;1986;52.546;13.428;2022-10-16T03:04:52;9.17;;;8.97;;
3943;SDS011;1986;52.546;13.428;2022-10-16T03:07:18;9.60;;;9.40;;
3943;SDS011;1986;52.546;13.428;2022-10-16T03:09:45;9.10;;;8.90;;
3943;SDS011;1986;52.546;13.428;2022-10-16T03:12:12;9.20;;;9.00;;
3943;SDS011;1986;52.546;13.428;2022-10-16T03:14:39;9.27;;;9.07;;
3943;SDS011;1986;52.546;13.428;2022-10-16T03:17:09;8.93;;;8.73;;
3943;SDS011;1986;52.546;13.428;2022-10-16T03:19:40;9.07;;;8.87;;
3943;SDS011;1986;52.546;13.428;2022-10-16T03:22:07;8.90;;;8.70;;
3943;SDS011;1986;52.546;13.428;2022-10-16T03:24:36;8.83;;;8.63;;
3943;SDS011;1986;52.546;13.428;2022-10-16T03:27:03;9.10;;;8.90;;
3943;SDS011;1986;52.546;13.428;2022-10-16T03:29:30;11.70;;;10.73;;
3943;SDS011;1986;52.546;13.428;2022-10-16T03:31:57;9.30;;;9.10;;
3943;SDS011;1986;52.546;13.428;2022-10-16T03:34:26;8.80;;;8.60;;
3943;SDS011;1986;52.546;13.428;2022-10-16T03:36:53;8.90;;;8.70;;
3943;SDS011;1986;52.546;13.428;2022-10-16T03:39:20;8.63;;;8.43;;
3943;SDS011;1986;52.546;13.428;2022-10-16T03:41:47;9.53;;;9.33;;
3943;SDS011;1986;52.546;13.428;2022-10-16T03:44:15;8.77;;;8.57;;
3943;SDS011;1986;52.546;13.428;2022-10-16T03:46:42;8.67;;;8.47;;
3943;SDS011;1986;52.546;13.428;2022-10-16T03:49:09;8.40;;;8.20;;
3943;SDS011;1986;52.546;13.428;2022-10-16T03:51:39;8.10;;;8.00;;
3943;SDS011;1986;52.546;13.428;2022-10-16T03:54:06;9.23;;;8.93;;
3943;SDS011;1986;52.546;13.428;2022-10-16T03:56:33;8.17;;;7.97;;
3943;SDS011;1986;52.546;13.428;2022-10-16T03:59:00;7.80;;;7.70;;
3943;SDS011;1986;52.546;13.428;2022-10-16T04:01:27;7.73;;;7.63;;
3943;SDS011;1986;52.546;13.428;2022-10-16T04:03:54;7.47;;;7.37;;
3943;SDS011;1986;52.546;13.428;2022-10-16T04:06:21;8.90;;;8.60;;
3943;SDS011;1986;52.546;13.428;2022-10-16T04:08:50;8.00;;;7.90;;
3943;SDS011;1986;52.546;13.428;2022-10-16T04:11:17;7.57;;;7.47;;
3943;SDS011;1986;52.546;13.428;2022-10-16T04:13:43;8.10;;;8.00;;
3943;SDS011;1986;52.546;13.428;2022-10-16T04:16:12;8.20;;;8.10;;
3943;SDS011;1986;52.546;13.428;2022-10-16T04:18:39;7.90;;;7.80;;
3943;SDS011;1986;52.546;13.428;2022-10-16T04:21:06;7.90;;;7.80;;
3943;SDS011;1986;52.546;13.428;2022-10-16T04:23:33;8.23;;;8.13;;
3943;SDS011;1986;52.546;13.428;2022-10-16T04:26:03;9.87;;;9.50;;
3943;SDS011;1986;52.546;13.428;2022-10-16T04:28:30;7.63;;;7.53;;
3943;SDS011;1986;52.546;13.428;2022-10-16T04:30:57;7.70;;;7.60;;
3943;SDS011;1986;52.546;13.428;2022-10-16T04:33:24;7.67;;;7.57;;
3943;SDS011;1986;52.546;13.428;2022-10-16T04:35:56;7.70;;;7.60;;
3943;SDS011;1986;52.546;13.428;2022-10-16T04:38:23;10.70;;;10.40;;
3943;SDS011;1986;52.546;13.428;2022-10-16T04:40:52;8.10;;;7.90;;
3943;SDS011;1986;52.546;13.428;2022-10-16T04:43:21;7.80;;;7.70;;
3943;SDS011;1986;52.546;13.428;2022-10-16T04:45:51;8.20;;;8.00;;
3943;SDS011;1986;52.546;13.428;2022-10-16T04:48:20;7.90;;;7.80;;
3943;SDS011;1986;52.546;13.428;2022-10-16T04:50:47;7.50;;;7.40;;
3943;SDS011;1986;52.546;13.428;2022-10-16T04:53:16;7.90;;;7.80;;
3943;SDS011;1986;52.546;13.428;2022-10-16T04:55:43;8.27;;;8.13;;
3943;SDS011;1986;52.546;13.428;2022-10-16T04:58:12;8.83;;;8.63;;
3943;SDS011;1986;52.546;13.428;2022-10-16T05:00:40;8.10;;;8.00;;
3943;SDS011;1986;52.546;13.428;2022-10-16T05:03:07;8.07;;;7.97;;
3943;SDS011;1986;52.546;13.428;2022-10-16T05:05:34;8.37;;;8.20;;
3943;SDS011;1986;52.546;13.428;2022-10-16T05:08:02;8.40;;;8.30;;
3943;SDS011;1986;52.546;13.428;2022-10-16T05:10:30;7.77;;;7.67;;
3943;SDS011;1986;52.546;13.428;2022-10-16T05:12:57;7.27;;;7.17;;
3943;SDS011;1986;52.546;13.428;2022-10-16T05:15:31;7.50;;;7.40;;
3943;SDS011;1986;52.546;13.428;2022-10-16T05:18:00;7.50;;;7.40;;
3943;SDS011;1986;52.546;13.428;2022-10-16T05:20:27;6.90;;;6.80;;
3943;SDS011;1986;52.546;13.428;2022-10-16T05:22:55;7.40;;;7.30;;
3943;SDS011;1986;52.546;13.428;2022-10-16T05:25:22;7.50;;;7.40;;
3943;SDS011;1986;52.546;13.428;2022-10-16T05:27:49;7.20;;;7.10;;
3943;SDS011;1986;52.546;13.428;2022-10-16T05:30:15;7.20;;;7.10;;
3943;SDS011;1986;52.546;13.428;2022-10-16T05:32:46;6.50;;;6.40;;
3943;SDS011;1986;52.546;13.428;2022-10-16T05:35:15;6.13;;;6.03;;
3943;SDS011;1986;52.546;13.428;2022-10-16T05:37:43;5.70;;;5.60;;
3943;SDS011;1986;52.546;13.428;2022-10-16T05:40:11;5.07;;;4.97;;
3943;SDS011;1986;52.546;13.428;2022-10-16T05:42:41;4.87;;;4.77;;
3943;SDS011;1986;52.546;13.428;2022-10-16T05:45:11;5.40;;;5.30;;
3943;SDS011;1986;52.546;13.428;2022-10-16T05:47:38;5.40;;;5.30;;
3943;SDS011;1986;52.546;13.428;2022-10-16T05:50:08;5.40;;;5.30;;
3943;SDS011;1986;52.546;13.428;2022-10-16T05:52:37;5.60;;;5.50;;
3943;SDS011;1986;52.546;13.428;2022-10-16T05:55:04;6.23;;;6.13;;
3943;SDS011;1986;52.546;13.428;2022-10-16T05:57:31;5.60;;;5.50;;
3943;SDS011;1986;52.546;13.428;2022-10-16T05:59:58;6.50;;;6.40;;
3943;SDS011;1986;52.546;13.428;2022-10-16T06:02:27;6.40;;;6.30;;
3943;SDS011;1986;52.546;13.428;2022-10-16T06:04:56;5.70;;;5.60;;
3943;SDS011;1986;52.546;13.428;2022-10-16T06:07:23;6.50;;;6.40;;
3943;SDS011;1986;52.546;13.428;2022-10-16T06:09:52;6.10;;;6.00;;
3943;SDS011;1986;52.546;13.428;2022-10-16T06:12:19;6.03;;;5.93;;
3943;SDS011;1986;52.546;13.428;2022-10-16T06:14:46;5.90;;;5.80;;
3943;SDS011;1986;52.546;13.428;2022-10-16T06:17:13;5.97;;;5.87;;
3943;SDS011;1986;52.546;13.428;2022-10-16T06:19:41;5.60;;;5.50;;
3943;SDS011;1986;52.546;13.428;2022-10-16T06:22:08;6.57;;;6.27;;
3943;SDS011;1986;52.546;13.428;2022-10-16T06:24:35;5.80;;;5.70;;
3943;SDS011;1986;52.546;13.428;2022-10-16T06:27:04;4.80;;;4.70;;
3943;SDS011;1986;52.546;13.428;2022-10-16T06:29:34;4.97;;;4.83;;
3943;SDS011;1986;52.546;13.428;2022-10-16T06:32:01;4.33;;;4.23;;
3943;SDS011;1986;52.546;13.428;2022-10-16T06:34:30;4.70;;;4.60;;
3943;SDS011;1986;52.546;13.428;2022-10-16T06:36:57;4.83;;;4.73;;
3943;SDS011;1986;52.546;13.428;2022-10-16T06:39:23;5.10;;;5.00;;
3943;SDS011;1986;52.546;13.428;2022-10-16T06:41:50;5.27;;;5.17;;
3943;SDS011;1986;52.546;13.428;2022-10-16T06:44:18;5.67;;;5.57;;
3943;SDS011;1986;52.546;13.428;2022-10-16T06:46:48;6.10;;;6.00;;
3943;SDS011;1986;52.546;13.428;2022-10-16T06:49:17;5.63;;;5.53;;
3943;SDS011;1986;52.546;13.428;2022-10-16T06:51:47;5.90;;;5.80;;
3943;SDS011;1986;52.546;13.428;2022-10-16T06:54:14;6.90;;;6.80;;
3943;SDS011;1986;52.546;13.428;2022-10-16T06:56:44;7.57;;;7.47;;
3943;SDS011;1986;52.546;13.428;2022-10-16T06:59:11;7.23;;;7.13;;
3943;SDS011;1986;52.546;13.428;2022-10-16T07:01:42;6.80;;;6.70;;
3943;SDS011;1986;52.546;13.428;2022-10-16T07:04:09;6.80;;;6.70;;
3943;SDS011;1986;52.546;13.428;2022-10-16T07:06:39;6.43;;;6.33;;
3943;SDS011;1986;52.546;13.428;2022-10-16T07:09:09;7.50;;;7.40;;
3943;SDS011;1986;52.546;13.428;2022-10-16T07:11:37;7.40;;;7.30;;
3943;SDS011;1986;52.546;13.428;2022-10-16T07:14:09;8.00;;;7.80;;
3943;SDS011;1986;52.546;13.428;2022-10-16T07:16:43;7.80;;;7.60;;
3943;SDS011;1986;52.546;13.428;2022-10-16T07:19:10;8.37;;;8.17;;
3943;SDS011;1986;52.546;13.428;2022-10-16T07:21:38;8.70;;;8.50;;
3943;SDS011;1986;52.546;13.428;2022-10-16T07:24:09;9.07;;;8.87;;
3943;SDS011;1986;52.546;13.428;2022-10-16T07:26:40;9.90;;;9.60;;
3943;SDS011;1986;52.546;13.428;2022-10-16T07:29:11;11.00;;;10.60;;
3943;SDS011;1986;52.546;13.428;2022-10-16T07:31:39;10.47;;;10.17;;
3943;SDS011;1986;52.546;13.428;2022-10-16T07:34:08;11.00;;;10.70;;
3943;SDS011;1986;52.546;13.428;2022-10-16T07:36:38;11.30;;;11.00;;
3943;SDS011;1986;52.546;13.428;2022-10-16T07:39:08;11.80;;;11.50;;
3943;SDS011;1986;52.546;13.428;2022-10-16T07:41:36;11.23;;;10.93;;
3943;SDS011;1986;52.546;13.428;2022-10-16T07:44:03;11.47;;;11.17;;
3943;SDS011;1986;52.546;13.428;2022-10-16T07:46:34;11.93;;;11.63;;
3943;SDS011;1986;52.546;13.428;2022-10-16T07:49:02;11.90;;;11.60;;
3943;SDS011;1986;52.546;13.428;2022-10-16T07:51:31;11.70;;;11.40;;
3943;SDS011;1986;52.546;13.428;2022-10-16T07:54:03;12.30;;;11.90;;
3943;SDS011;1986;52.546;13.428;2022-10-16T07:56:31;13.00;;;12.60;;
3943;SDS011;1986;52.546;13.428;2022-10-16T07:58:58;12.50;;;12.10;;
3943;SDS011;1986;52.546;13.428;2022-10-16T08:01:25;12.93;;;12.53;;
3943;SDS011;1986;52.546;13.428;2022-10-16T08:03:52;12.63;;;12.23;;
3943;SDS011;1986;52.546;13.428;2022-10-16T08:06:20;12.30;;;11.90;;
3943;SDS011;1986;52.546;13.428;2022-10-16T08:08:49;12.80;;;12.40;;
3943;SDS011;1986;52.546;13.428;2022-10-16T08:11:16;14.20;;;13.60;;
3943;SDS011;1986;52.546;13.428;2022-10-16T08:13:43;12.93;;;12.53;;
3943;SDS011;1986;52.546;13.428;2022-10-16T08:16:12;12.90;;;12.50;;
3943;SDS011;1986;52.546;13.428;2022-10-16T08:18:42;12.67;;;12.27;;
3943;SDS011;1986;52.546;13.428;2022-10-16T08:21:12;12.47;;;12.07;;
3943;SDS011;1986;52.546;13.428;2022-10-16T08:23:40;12.40;;;12.00;;
3943;SDS011;1986;52.546;13.428;2022-10-16T08:26:12;13.73;;;13.13;;
3943;SDS011;1986;52.546;13.428;2022-10-16T08:28:39;14.37;;;13.73;;
3943;SDS011;1986;52.546;13.428;2022-10-16T08:31:08;13.67;;;13.27;;
3943;SDS011;1986;52.546;13.428;2022-10-16T08:33:36;13.50;;;13.10;;
3943;SDS011;1986;52.546;13.428;2022-10-16T08:36:03;13.70;;;13.30;;
3943;SDS011;1986;52.546;13.428;2022-10-16T08:38:32;15.13;;;14.53;;
3943;SDS011;1986;52.546;13.428;2022-10-16T08:41:02;15.63;;;15.00;;
3943;SDS011;1986;52.546;13.428;2022-10-16T08:43:59;14.10;;;13.70;;
3943;SDS011;1986;52.546;13.428;2022-10-16T08:47:00;13.90;;;13.50;;
3943;SDS011;1986;52.546;13.428;2022-10-16T08:49:35;14.70;;;13.80;;
3943;SDS011;1986;52.546;13.428;2022-10-16T08:52:03;13.63;;;13.23;;
3943;SDS011;1986;52.546;13.428;2022-10-16T08:54:41;13.83;;;13.43;;
3943;SDS011;1986;52.546;13.428;2022-10-16T08:57:13;13.23;;;12.83;;
3943;SDS011;1986;52.546;13.428;2022-10-16T08:59:44;13.40;;;13.00;;
3943;SDS011;1986;52.546;13.428;2022-10-16T09:02:20;13.10;;;12.70;;
3943;SDS011;1986;52.546;13.428;2022-10-16T09:07:51;14.40;;;13.90;;
3943;SDS011;1986;52.546;13.428;2022-10-16T09:10:26;14.67;;;14.10;;
3943;SDS011;1986;52.546;13.428;2022-10-16T09:13:08;13.47;;;13.07;;
3943;SDS011;1986;52.546;13.428;2022-10-16T09:15:45;14.17;;;13.67;;
3943;SDS011;1986;52.546;13.428;2022-10-16T09:18:22;13.40;;;13.00;;
3943;SDS011;1986;52.546;13.428;2022-10-16T09:20:56;13.30;;;12.80;;
3943;SDS011;1986;52.546;13.428;2022-10-16T09:23:26;14.03;;;13.63;;
3943;SDS011;1986;52.546;13.428;2022-10-16T09:25:54;13.30;;;12.90;;
3943;SDS011;1986;52.546;13.428;2022-10-16T09:28:25;13.00;;;12.60;;
3943;SDS011;1986;52.546;13.428;2022-10-16T09:30:52;13.33;;;12.90;;
3943;SDS011;1986;52.546;13.428;2022-10-16T09:33:23;13.47;;;13.07;;
3943;SDS011;1986;52.546;13.428;2022-10-16T09:35:54;13.50;;;13.10;;
3943;SDS011;1986;52.546;13.428;2022-10-16T09:38:24;14.27;;;13.77;;
3943;SDS011;1986;52.546;13.428;2022-10-16T09:40:55;13.70;;;13.30;;
3943;SDS011;1986;52.546;13.428;2022-10-16T09:43:24;14.10;;;13.70;;
3943;SDS011;1986;52.546;13.428;2022-10-16T09:45:59;13.87;;;13.37;;
3943;SDS011;1986;52.546;13.428;2022-10-16T09:48:28;15.10;;;14.50;;
3943;SDS011;1986;52.546;13.428;2022-10-16T09:51:03;14.70;;;14.20;;
3943;SDS011;1986;52.546;13.428;2022-10-16T09:53:41;15.03;;;14.53;;
3943;SDS011;1986;52.546;13.428;2022-10-16T09:56:10;15.37;;;14.77;;
3943;SDS011;1986;52.546;13.428;2022-10-16T09:58:43;14.63;;;14.03;;
3943;SDS011;1986;52.546;13.428;2022-10-16T10:01:19;13.53;;;13.13;;
3943;SDS011;1986;52.546;13.428;2022-10-16T10:03:47;13.13;;;12.73;;
3943;SDS011;1986;52.546;13.428;2022-10-16T10:06:22;15.07;;;14.47;;
3943;SDS011;1986;52.546;13.428;2022-10-16T10:08:55;13.80;;;13.30;;
3943;SDS011;1986;52.546;13.428;2022-10-16T10:11:37;15.50;;;14.80;;
3943;SDS011;1986;52.546;13.428;2022-10-16T10:16:43;16.13;;;14.70;;
3943;SDS011;1986;52.546;13.428;2022-10-16T10:19:13;14.77;;;14.27;;
3943;SDS011;1986;52.546;13.428;2022-10-16T10:21:41;14.87;;;14.37;;
3943;SDS011;1986;52.546;13.428;2022-10-16T10:24:09;16.70;;;16.00;;
3943;SDS011;1986;52.546;13.428;2022-10-16T10:26:37;15.30;;;14.70;;
3943;SDS011;1986;52.546;13.428;2022-10-16T10:29:09;16.60;;;15.37;;
3943;SDS011;1986;52.546;13.428;2022-10-16T10:31:46;16.43;;;15.30;;
3943;SDS011;1986;52.546;13.428;2022-10-16T10:34:25;15.90;;;15.30;;
3943;SDS011;1986;52.546;13.428;2022-10-16T10:37:02;15.80;;;15.20;;
3943;SDS011;1986;52.546;13.428;2022-10-16T10:39:47;15.07;;;14.50;;
3943;SDS011;1986;52.546;13.428;2022-10-16T10:42:26;16.23;;;15.33;;
3943;SDS011;1986;52.546;13.428;2022-10-16T10:45:13;16.20;;;15.50;;
3943;SDS011;1986;52.546;13.428;2022-10-16T10:47:59;16.47;;;15.87;;
3943;SDS011;1986;52.546;13.428;2022-10-16T10:50:39;15.97;;;15.17;;
3943;SDS011;1986;52.546;13.428;2022-10-16T10:53:18;16.83;;;15.97;;
3943;SDS011;1986;52.546;13.428;2022-10-16T10:55:58;15.47;;;14.87;;
3943;SDS011;1986;52.546;13.428;2022-10-16T10:58:48;16.53;;;15.73;;
3943;SDS011;1986;52.546;13.428;2022-10-16T11:01:35;15.87;;;15.27;;
3943;SDS011;1986;52.546;13.428;2022-10-16T11:04:16;16.83;;;16.13;;
3943;SDS011;1986;52.546;13.428;2022-10-16T11:07:04;16.80;;;16.00;;
3943;SDS011;1986;52.546;13.428;2022-10-16T11:09:34;16.40;;;15.70;;
3943;SDS011;1986;52.546;13.428;2022-10-16T11:12:05;15.80;;;15.10;;
3943;SDS011;1986;52.546;13.428;2022-10-16T11:14:39;16.97;;;16.17;;
3943;SDS011;1986;52.546;13.428;2022-10-16T11:17:13;16.63;;;15.93;;
3943;SDS011;1986;52.546;13.428;2022-10-16T11:19:46;16.47;;;15.77;;
3943;SDS011;1986;52.546;13.428;2022-10-16T11:22:19;18.40;;;16.67;;
3943;SDS011;1986;52.546;13.428;2022-10-16T11:24:51;16.70;;;15.90;;
3943;SDS011;1986;52.546;13.428;2022-10-16T11:27:36;17.67;;;16.87;;
3943;SDS011;1986;52.546;13.428;2022-10-16T11:30:06;17.50;;;16.80;;
3943;SDS011;1986;52.546;13.428;2022-10-16T11:32:45;18.47;;;17.27;;
3943;SDS011;1986;52.546;13.428;2022-10-16T11:35:29;17.70;;;16.90;;
3943;SDS011;1986;52.546;13.428;2022-10-16T11:38:12;17.10;;;16.40;;
3943;SDS011;1986;52.546;13.428;2022-10-16T11:40:45;17.20;;;16.50;;
3943;SDS011;1986;52.546;13.428;2022-10-16T11:43:17;17.53;;;16.73;;
3943;SDS011;1986;52.546;13.428;2022-10-16T11:45:49;17.30;;;16.33;;
3943;SDS011;1986;52.546;13.428;2022-10-16T11:48:23;17.20;;;16.40;;
3943;SDS011;1986;52.546;13.428;2022-10-16T11:50:57;18.83;;;17.63;;
3943;SDS011;1986;52.546;13.428;2022-10-16T11:53:34;17.70;;;16.90;;
3943;SDS011;1986;52.546;13.428;2022-10-16T11:56:11;17.77;;;16.97;;
3943;SDS011;1986;52.546;13.428;2022-10-16T11:58:41;16.90;;;16.20;;
3943;SDS011;1986;52.546;13.428;2022-10-16T12:01:17;17.53;;;16.73;;
3943;SDS011;1986;52.546;13.428;2022-10-16T12:03:51;17.83;;;16.93;;
3943;SDS011;1986;52.546;13.428;2022-10-16T12:06:30;17.47;;;16.67;;
3943;SDS011;1986;52.546;13.428;2022-10-16T12:09:00;17.93;;;17.03;;
3943;SDS011;1986;52.546;13.428;2022-10-16T12:11:31;17.60;;;16.80;;
3943;SDS011;1986;52.546;13.428;2022-10-16T12:14:04;17.33;;;16.30;;
3943;SDS011;1986;52.546;13.428;2022-10-16T12:16:33;18.07;;;17.13;;
3943;SDS011;1986;52.546;13.428;2022-10-16T12:19:10;17.40;;;16.60;;
3943;SDS011;1986;52.546;13.428;2022-10-16T12:21:38;18.40;;;17.50;;
3943;SDS011;1986;52.546;13.428;2022-10-16T12:24:06;18.90;;;17.80;;
3943;SDS011;1986;52.546;13.428;2022-10-16T12:26:50;18.53;;;17.63;;
3943;SDS011;1986;52.546;13.428;2022-10-16T12:29:22;17.90;;;17.00;;
3943;SDS011;1986;52.546;13.428;2022-10-16T12:31:54;18.10;;;17.20;;
3943;SDS011;1986;52.546;13.428;2022-10-16T12:34:25;19.37;;;17.80;;
3943;SDS011;1986;52.546;13.428;2022-10-16T12:36:55;18.40;;;17.50;;
3943;SDS011;1986;52.546;13.428;2022-10-16T12:39:33;18.67;;;17.77;;
3943;SDS011;1986;52.546;13.428;2022-10-16T12:42:02;18.83;;;17.83;;
3943;SDS011;1986;52.546;13.428;2022-10-16T12:44:34;18.20;;;17.30;;
3943;SDS011;1986;52.546;13.428;2022-10-16T12:47:02;18.70;;;17.80;;
3943;SDS011;1986;52.546;13.428;2022-10-16T12:49:36;18.70;;;17.80;;
3943;SDS011;1986;52.546;13.428;2022-10-16T12:52:04;18.60;;;17.70;;
3943;SDS011;1986;52.546;13.428;2022-10-16T12:54:51;19.53;;;18.53;;
3943;SDS011;1986;52.546;13.428;2022-10-16T12:57:27;19.20;;;18.23;;
3943;SDS011;1986;52.546;13.428;2022-10-16T13:00:07;19.10;;;18.10;;
3943;SDS011;1986;52.546;13.428;2022-10-16T13:05:46;18.80;;;17.80;;
3943;SDS011;1986;52.546;13.428;2022-10-16T13:08:27;19.33;;;18.33;;
3943;SDS011;1986;52.546;13.428;2022-10-16T13:11:13;18.87;;;17.83;;
3943;SDS011;1986;52.546;13.428;2022-10-16T13:13:51;19.27;;;18.27;;
3943;SDS011;1986;52.546;13.428;2022-10-16T13:16:34;18.73;;;17.80;;
3943;SDS011;1986;52.546;13.428;2022-10-16T13:19:14;20.63;;;18.60;;
3943;SDS011;1986;52.546;13.428;2022-10-16T13:21:51;19.37;;;18.27;;
3943;SDS011;1986;52.546;13.428;2022-10-16T13:24:33;20.43;;;18.50;;
3943;SDS011;1986;52.546;13.428;2022-10-16T13:27:14;18.73;;;17.80;;
3943;SDS011;1986;52.546;13.428;2022-10-16T13:29:52;19.00;;;17.80;;
3943;SDS011;1986;52.546;13.428;2022-10-16T13:32:25;18.83;;;17.83;;
3943;SDS011;1986;52.546;13.428;2022-10-16T13:34:53;20.63;;;19.33;;
3943;SDS011;1986;52.546;13.428;2022-10-16T13:37:23;19.53;;;18.33;;
3943;SDS011;1986;52.546;13.428;2022-10-16T13:40:01;19.33;;;18.23;;
3943;SDS011;1986;52.546;13.428;2022-10-16T13:42:36;19.80;;;18.70;;
3943;SDS011;1986;52.546;13.428;2022-10-16T13:45:04;18.80;;;17.80;;
3943;SDS011;1986;52.546;13.428;2022-10-16T13:47:43;19.77;;;18.67;;
3943;SDS011;1986;52.546;13.428;2022-10-16T13:50:13;19.30;;;18.20;;
3943;SDS011;1986;52.546;13.428;2022-10-16T13:52:43;19.63;;;18.63;;
3943;SDS011;1986;52.546;13.428;2022-10-16T13:55:10;19.27;;;18.20;;
3943;SDS011;1986;52.546;13.428;2022-10-16T13:57:38;18.80;;;17.80;;
3943;SDS011;1986;52.546;13.428;2022-10-16T14:00:17;19.60;;;18.50;;
3943;SDS011;1986;52.546;13.428;2022-10-16T14:02:45;20.23;;;19.03;;
3943;SDS011;1986;52.546;13.428;2022-10-16T14:05:18;19.90;;;18.70;;
3943;SDS011;1986;52.546;13.428;2022-10-16T14:07:47;20.27;;;18.97;;
3943;SDS011;1986;52.546;13.428;2022-10-16T14:10:20;19.60;;;18.40;;
3943;SDS011;1986;52.546;13.428;2022-10-16T14:12:57;20.27;;;18.97;;
3943;SDS011;1986;52.546;13.428;2022-10-16T14:15:25;19.83;;;18.63;;
3943;SDS011;1986;52.546;13.428;2022-10-16T14:17:52;20.57;;;19.37;;
3943;SDS011;1986;52.546;13.428;2022-10-16T14:20:21;20.13;;;18.87;;
3943;SDS011;1986;52.546;13.428;2022-10-16T14:22:59;21.23;;;19.70;;
3943;SDS011;1986;52.546;13.428;2022-10-16T14:25:28;20.40;;;19.10;;
3943;SDS011;1986;52.546;13.428;2022-10-16T14:27:57;20.20;;;18.90;;
3943;SDS011;1986;52.546;13.428;2022-10-16T14:30:26;20.30;;;19.10;;
3943;SDS011;1986;52.546;13.428;2022-10-16T14:32:54;20.90;;;19.47;;
3943;SDS011;1986;52.546;13.428;2022-10-16T14:35:24;19.60;;;18.50;;
3943;SDS011;1986;52.546;13.428;2022-10-16T14:37:52;19.67;;;18.57;;
3943;SDS011;1986;52.546;13.428;2022-10-16T14:40:21;20.10;;;19.00;;
3943;SDS011;1986;52.546;13.428;2022-10-16T14:42:51;19.50;;;18.40;;
3943;SDS011;1986;52.546;13.428;2022-10-16T14:45:19;19.50;;;18.47;;
3943;SDS011;1986;52.546;13.428;2022-10-16T14:47:48;20.20;;;19.10;;
3943;SDS011;1986;52.546;13.428;2022-10-16T14:50:18;19.13;;;18.13;;
3943;SDS011;1986;52.546;13.428;2022-10-16T14:52:45;19.40;;;18.40;;
3943;SDS011;1986;52.546;13.428;2022-10-16T14:55:11;19.67;;;18.57;;
3943;SDS011;1986;52.546;13.428;2022-10-16T14:57:40;20.07;;;18.87;;
3943;SDS011;1986;52.546;13.428;2022-10-16T15:00:10;19.57;;;18.30;;
3943;SDS011;1986;52.546;13.428;2022-10-16T15:02:41;21.00;;;19.90;;
3943;SDS011;1986;52.546;13.428;2022-10-16T15:05:13;18.10;;;17.40;;
3943;SDS011;1986;52.546;13.428;2022-10-16T15:07:42;17.80;;;17.10;;
3943;SDS011;1986;52.546;13.428;2022-10-16T15:10:10;17.50;;;16.90;;
3943;SDS011;1986;52.546;13.428;2022-10-16T15:12:38;17.73;;;17.07;;
3943;SDS011;1986;52.546;13.428;2022-10-16T15:15:15;17.33;;;16.63;;
3943;SDS011;1986;52.546;13.428;2022-10-16T15:17:51;18.10;;;17.40;;